Palm Beach, FL

8:39 PM EDT on July 31, 2015 (GMT -0400)
APRSWXNET | | Change Station
CLOSE
Current Station
Personal Weather Station
Location: Lake Worth, FL
Elevation: 13 ft
Nearby Weather Stations

Elev 13 ft 26.64 °N, 80.04 °W | Updated 24 minutes ago

Light Rain
Light Rain
74.0 °F
Feels Like 71 °F
N
3.0
Wind Variable Wind from NE
Gusts 6.0 mph

Today
High -- | Low -- °F
--% Chance of Precip.
Yesterday
High -- | Low -- °F
Precip. -- in
6:44 AM 8:08 PM
Full, 100% visible
Pressure 30.04 in
Visibility 10.0 miles
Clouds Scattered Clouds 3900 ft
Mostly Cloudy 9000 ft
Mostly Cloudy 12000 ft
Heat Index 71 °F
Dew Point 72.0 °F
Humidity 94%
Rainfall in
Snow Depth Not available.
UV 0 out of 12
Pollen .50 out of 12
Air Quality Not available.
Flu Activity Not available.
SPECI KPBI 010014Z 11009KT 10SM -RA SCT039CB BKN090 BKN120 23/22 A3004 RMK AO2 TSE13 CB E-SE MOV NE P0002 T02330217

More Conditions Fewer Conditions

Pressure 30.04 in
Visibility 10.0 miles
Clouds Scattered Clouds 3900 ft
Mostly Cloudy 9000 ft
Mostly Cloudy 12000 ft
Heat Index 71 °F
Dew Point 72.0 °F
Humidity 94%
Rainfall in
Snow Depth Not available.
UV 0 out of 12
Pollen .50 out of 12
Air Quality Not available.
Flu Activity Not available.
SPECI KPBI 010014Z 11009KT 10SM -RA SCT039CB BKN090 BKN120 23/22 A3004 RMK AO2 TSE13 CB E-SE MOV NE P0002 T02330217

More Conditions Fewer Conditions

Nowcast | as of 8:16 PM EDT on July 31, 2015

Scattered showers and thunderstorms continue to slowly push to the northeast across mainly areas south of Alligator alley this evening. Light to moderate rain with a few embedded thunderstorms are also seen across Palm Beach County and the Atlantic waters.

×

10-Day Weather Forecast

×

Almanac

Astronomy

Jul. 31, 2015 Rise Set
Actual Time
Civil Twilight
Nautical Twilight
Astronomical Twilight
Moon
Length of Visible Light
Length of Day
Tomorrow will be .
, % of the Moon is Illuminated

Today's Extremes

State Highs State Lows

Community

WunderPhotos

Upload Photos

1,842,781 photos uploaded!

WunderBlogs® & News

Nearby

Air Quality

  Air Quality AQ Index Pollutant
Not available.

Snow Depth

Station Depth Elevation

Earthquake Activity

City Distance Mag. Time & Date
Minimum magnitude displayed is 2.5.

Coastal Water Temperatures

Place Temperature

Stations

Nearby Weather Stations

Station Location Temp. Windchill Dew Point Humidity Wind Precip. Elev Updated Type